Hauptseite
METAR-TAF:

METAR-TAF

Flughäfen :

Flughafen Friedrichshafen

Friedrichshafen, Deutschland

Breite: 47-40N, Länge: 009-31E, Höhe: 416 m

Beobachtung

Neuester Wetterbericht von vor 35 Minuten, um 18:20 UTC
Wind 5 kt aus Ost, variierte zwischen Ost/Nordost und Südost
Temperatur 7°C
Luftfeuchtigkeit 49%
Luftdruck 1000 hPa
Sichtweite 10 km oder mehr

METAR: EDNY 251820Z AUTO 09005KT 060V140 9999 FEW130/// SCT250/// 07/M03 Q1000

Zeit: 19:55 (18:55 UTC)

Prognose

Neuester Wetterbericht von vor 1 Stunde und 55 Minuten, um 17:00 UTC
Gültige Prognose vom 25 um 18 UTC bis 26 um 18 UTC
Wind 3 kt aus Ost/Nordost
Sichtweite 10 km oder mehr
keine Wolken unter 1500 m und keine Kumulonimbus oder Gewitterwolken

TAF: EDNY 251700Z 2518/2618 06003KT CAVOK

Wetterbeobachtungen und Prognosen von mehr als 4000 Flughäfen (METAR und TAF Bericht).

Die verfügbaren Stationen werden durch gelbe und rote Markierungen auf der Karte dargestellt.

Führen Sie die Maus auf sie, um den Namen der Station zu sehen.

Darauf klicken, um die Beobachtung von Wetterbeobachtungen und Prognosen zu sehen.

Um die Karte zu ändern : klicken Sie auf den grünen Tasten mit einem schwarzen Kreuz Zum Vergrößern, auf den grünen Button mit einem Gedankenstrich zu verkleinern, oder auf die grünen Pfeile für benachbarte Karten.


METAR-TAF: